createdAt,value
2018-01-03T00:00:11.145Z,0.00
2018-01-03T00:01:11.269Z,0.00
2018-01-03T00:02:11.207Z,0.00
2018-01-03T00:03:11.239Z,0.00
2018-01-03T00:04:11.270Z,0.00
2018-01-03T00:05:11.305Z,0.00
2018-01-03T00:06:11.335Z,0.00
2018-01-03T00:07:11.365Z,0.00
2018-01-03T00:08:11.407Z,0.00
2018-01-03T00:09:11.440Z,0.00
2018-01-03T00:10:11.458Z,0.00
2018-01-03T00:11:11.492Z,0.00
2018-01-03T00:12:11.523Z,0.00
2018-01-03T00:13:11.558Z,0.00
2018-01-03T00:14:11.586Z,0.00
2018-01-03T00:15:11.618Z,0.00
2018-01-03T00:16:11.647Z,0.00
2018-01-03T00:17:11.680Z,0.00
2018-01-03T00:18:11.798Z,0.00
2018-01-03T00:19:11.742Z,0.00
2018-01-03T00:20:11.779Z,0.00
2018-01-03T00:21:11.807Z,0.00
2018-01-03T00:22:11.836Z,0.00
2018-01-03T00:23:11.880Z,0.00
2018-01-03T00:24:11.902Z,0.00
2018-01-03T00:25:11.933Z,0.00
2018-01-03T00:26:11.959Z,0.00
2018-01-03T00:27:11.998Z,0.00
2018-01-03T00:28:12.022Z,0.00
2018-01-03T00:29:12.058Z,0.00
2018-01-03T00:30:12.089Z,0.00
2018-01-03T00:31:12.118Z,0.00
2018-01-03T00:32:12.149Z,0.00
2018-01-03T00:33:12.183Z,0.00
2018-01-03T00:34:12.210Z,0.00
2018-01-03T00:35:12.244Z,0.00
2018-01-03T00:36:12.279Z,0.00
2018-01-03T00:37:12.371Z,0.00
2018-01-03T00:38:12.340Z,0.00
2018-01-03T00:39:12.376Z,0.00
2018-01-03T00:40:12.401Z,0.00
2018-01-03T00:41:12.431Z,0.00
2018-01-03T00:42:12.462Z,0.00
2018-01-03T00:43:12.494Z,0.00
2018-01-03T00:44:12.531Z,0.00
2018-01-03T00:45:12.560Z,0.00
2018-01-03T00:46:12.589Z,0.00
2018-01-03T00:47:12.619Z,0.00
2018-01-03T00:48:12.662Z,0.00
2018-01-03T00:49:12.685Z,0.00
2018-01-03T00:50:12.715Z,0.00
2018-01-03T00:51:12.751Z,0.00
2018-01-03T00:52:12.780Z,0.00
2018-01-03T00:53:12.811Z,0.00
2018-01-03T00:54:12.902Z,0.00
2018-01-03T00:55:12.874Z,0.00
2018-01-03T00:56:12.905Z,0.00
2018-01-03T00:57:12.935Z,0.00
2018-01-03T00:58:12.986Z,0.00
2018-01-03T00:59:13.002Z,0.00
2018-01-03T01:00:13.032Z,0.00
2018-01-03T01:01:13.394Z,0.00
2018-01-03T01:02:13.096Z,0.00
2018-01-03T01:03:13.125Z,0.00
2018-01-03T01:04:13.157Z,0.00
2018-01-03T01:05:13.192Z,0.00
2018-01-03T01:06:13.217Z,0.00
2018-01-03T01:07:13.250Z,0.00
2018-01-03T01:08:13.282Z,0.00
2018-01-03T01:09:13.314Z,0.00
2018-01-03T01:10:13.344Z,0.00
2018-01-03T01:11:13.378Z,0.00
2018-01-03T01:12:13.415Z,0.00
2018-01-03T01:13:13.448Z,0.00
2018-01-03T01:14:13.471Z,0.00
2018-01-03T01:15:13.502Z,0.00
2018-01-03T01:16:13.533Z,0.00
2018-01-03T01:17:13.575Z,0.00
2018-01-03T01:18:13.597Z,0.00
2018-01-03T01:19:13.626Z,0.00
2018-01-03T01:20:13.686Z,0.00
2018-01-03T01:21:13.689Z,0.00
2018-01-03T01:22:13.724Z,0.00
2018-01-03T01:23:13.761Z,0.00
2018-01-03T01:24:13.784Z,0.00
2018-01-03T01:25:13.896Z,0.00
2018-01-03T01:26:13.846Z,0.00
2018-01-03T01:27:13.879Z,0.00
2018-01-03T01:28:13.909Z,0.00
2018-01-03T01:29:13.945Z,0.00
2018-01-03T01:30:13.974Z,0.00
2018-01-03T01:31:14.004Z,0.00
2018-01-03T01:32:14.035Z,0.00
2018-01-03T01:33:14.067Z,0.00
2018-01-03T01:34:14.098Z,0.00
2018-01-03T01:35:14.143Z,0.00
2018-01-03T01:36:14.166Z,0.00
2018-01-03T01:37:14.195Z,0.00
2018-01-03T01:38:14.227Z,0.00
2018-01-03T01:39:14.256Z,0.00
2018-01-03T01:40:14.293Z,0.00
2018-01-03T01:41:14.327Z,0.00
2018-01-03T01:42:14.349Z,0.00
2018-01-03T01:43:14.382Z,0.00
2018-01-03T01:44:14.471Z,0.00
2018-01-03T01:45:14.445Z,0.00
2018-01-03T01:46:14.480Z,0.00
2018-01-03T01:47:14.509Z,0.00
2018-01-03T01:48:14.539Z,0.00
2018-01-03T01:49:14.571Z,0.00
2018-01-03T01:50:14.615Z,0.00
2018-01-03T01:51:14.642Z,0.00
2018-01-03T01:52:14.667Z,0.00
2018-01-03T01:53:14.698Z,0.00
2018-01-03T01:54:14.733Z,0.00
2018-01-03T01:55:14.759Z,0.00
2018-01-03T01:56:14.792Z,0.00
2018-01-03T01:57:14.836Z,0.00
2018-01-03T01:58:14.856Z,0.00
2018-01-03T01:59:14.886Z,0.00
2018-01-03T02:00:14.917Z,0.00
2018-01-03T02:01:14.949Z,0.00
2018-01-03T02:02:14.977Z,0.00
2018-01-03T02:03:15.011Z,0.00
2018-01-03T02:04:15.054Z,0.00
2018-01-03T02:05:15.074Z,0.00
2018-01-03T02:06:15.103Z,0.00
2018-01-03T02:07:15.148Z,0.00
2018-01-03T02:08:15.537Z,0.00
2018-01-03T02:09:15.202Z,0.00
2018-01-03T02:10:15.229Z,0.00
2018-01-03T02:11:15.262Z,0.00
2018-01-03T02:12:15.292Z,0.00
2018-01-03T02:13:15.324Z,0.00
2018-01-03T02:14:15.359Z,0.00
2018-01-03T02:15:15.389Z,0.00
2018-01-03T02:16:15.419Z,0.00
2018-01-03T02:17:15.449Z,0.00
2018-01-03T02:18:15.481Z,0.00
2018-01-03T02:19:15.515Z,0.00
2018-01-03T02:20:15.603Z,0.00
2018-01-03T02:21:15.581Z,0.00
2018-01-03T02:22:15.609Z,0.00
2018-01-03T02:23:15.641Z,0.00
2018-01-03T02:24:15.670Z,0.00
2018-01-03T02:25:15.701Z,0.00
2018-01-03T02:26:15.733Z,0.00
2018-01-03T02:27:15.863Z,0.00
2018-01-03T02:28:15.794Z,0.00
2018-01-03T02:29:15.883Z,0.00
2018-01-03T02:30:15.855Z,0.00
2018-01-03T02:31:15.890Z,0.00
2018-01-03T02:32:15.921Z,0.00
2018-01-03T02:33:15.952Z,0.00
2018-01-03T02:34:15.981Z,0.00
2018-01-03T02:35:16.023Z,0.00
2018-01-03T02:36:16.048Z,0.00
2018-01-03T02:37:16.077Z,0.00
2018-01-03T02:38:16.107Z,0.00
2018-01-03T02:39:16.141Z,0.00
2018-01-03T02:40:16.173Z,0.00
2018-01-03T02:41:16.202Z,0.00
2018-01-03T02:42:16.234Z,0.00
2018-01-03T02:43:16.269Z,0.00
2018-01-03T02:44:16.303Z,0.00
2018-01-03T02:45:16.334Z,0.00
2018-01-03T02:46:16.362Z,0.00
2018-01-03T02:47:16.392Z,0.00
2018-01-03T02:48:16.424Z,0.00
2018-01-03T02:49:16.463Z,0.00
2018-01-03T02:50:16.486Z,0.00
2018-01-03T02:51:16.542Z,0.00
2018-01-03T02:52:16.554Z,0.00
2018-01-03T02:53:16.584Z,0.00
2018-01-03T02:54:16.623Z,0.00
2018-01-03T02:55:16.657Z,0.00
2018-01-03T02:56:16.674Z,0.00
2018-01-03T02:57:16.708Z,0.00
2018-01-03T02:58:16.753Z,0.00
2018-01-03T02:59:16.769Z,0.00
2018-01-03T03:00:16.803Z,0.00
2018-01-03T03:01:16.836Z,0.00
2018-01-03T03:02:16.865Z,0.00
2018-01-03T03:03:16.898Z,0.00
2018-01-03T03:04:16.927Z,0.00
2018-01-03T03:05:16.959Z,0.00
2018-01-03T03:06:16.990Z,0.00
2018-01-03T03:07:17.024Z,0.00
2018-01-03T03:08:17.055Z,0.00
2018-01-03T03:09:17.084Z,0.00
2018-01-03T03:10:17.116Z,0.00
2018-01-03T03:11:17.148Z,0.00
2018-01-03T03:12:17.185Z,0.00
2018-01-03T03:13:17.212Z,0.00
2018-01-03T03:14:17.297Z,0.00
2018-01-03T03:15:17.276Z,0.00
2018-01-03T03:16:17.307Z,0.00
2018-01-03T03:17:17.339Z,0.00
2018-01-03T03:18:17.369Z,0.00
2018-01-03T03:19:17.401Z,0.00
2018-01-03T03:20:17.452Z,0.00
2018-01-03T03:21:17.463Z,0.00
2018-01-03T03:22:17.499Z,0.00
2018-01-03T03:23:17.529Z,0.00
2018-01-03T03:24:17.560Z,0.00
2018-01-03T03:25:17.593Z,0.00
2018-01-03T03:26:17.636Z,0.00
2018-01-03T03:27:17.657Z,0.00
2018-01-03T03:28:17.688Z,0.00
2018-01-03T03:29:17.717Z,0.00
2018-01-03T03:30:17.751Z,0.00
2018-01-03T03:31:17.782Z,0.00
2018-01-03T03:32:17.822Z,0.00
2018-01-03T03:33:17.860Z,0.00
2018-01-03T03:34:18.220Z,0.00
2018-01-03T03:35:17.915Z,0.00
2018-01-03T03:36:17.942Z,0.00
2018-01-03T03:37:17.972Z,0.00
2018-01-03T03:38:18.004Z,0.00
2018-01-03T03:39:18.035Z,0.00
2018-01-03T03:40:18.069Z,0.00
2018-01-03T03:41:18.099Z,0.00
2018-01-03T03:42:18.132Z,0.00
2018-01-03T03:43:18.161Z,0.00
2018-01-03T03:44:18.196Z,0.00
2018-01-03T03:45:18.225Z,0.00
2018-01-03T03:46:18.319Z,0.00
2018-01-03T03:47:18.292Z,0.00
2018-01-03T03:48:18.324Z,0.00
2018-01-03T03:49:18.352Z,0.00
2018-01-03T03:50:18.383Z,0.00
2018-01-03T03:51:18.672Z,0.00
2018-01-03T03:52:18.451Z,0.00
2018-01-03T03:53:18.480Z,0.00
2018-01-03T03:54:18.509Z,0.00
2018-01-03T03:55:18.546Z,0.00
2018-01-03T03:56:18.576Z,0.00
2018-01-03T03:57:18.611Z,0.00
2018-01-03T03:58:18.694Z,0.00
2018-01-03T03:59:18.671Z,0.00
2018-01-03T04:00:18.704Z,0.00
2018-01-03T04:01:18.736Z,0.00
2018-01-03T04:02:18.767Z,0.00
2018-01-03T04:03:18.801Z,0.00
2018-01-03T04:04:18.832Z,0.00
2018-01-03T04:05:18.865Z,0.00
2018-01-03T04:06:18.894Z,0.00
2018-01-03T04:07:18.925Z,0.00
2018-01-03T04:08:18.957Z,0.00
2018-01-03T04:09:18.998Z,0.00
2018-01-03T04:10:19.128Z,0.00
2018-01-03T04:11:19.056Z,0.00
2018-01-03T04:12:19.094Z,0.00
2018-01-03T04:13:19.118Z,0.00
2018-01-03T04:14:19.153Z,0.00
2018-01-03T04:15:19.179Z,0.00
2018-01-03T04:16:19.213Z,0.00
2018-01-03T04:17:19.331Z,0.00
2018-01-03T04:18:19.280Z,0.00
2018-01-03T04:19:19.307Z,0.00
2018-01-03T04:20:19.343Z,0.00
2018-01-03T04:21:19.373Z,0.00
2018-01-03T04:22:19.416Z,0.00
2018-01-03T04:23:19.435Z,0.00
2018-01-03T04:24:19.471Z,0.00
2018-01-03T04:25:19.509Z,0.00
2018-01-03T04:26:19.528Z,0.00
2018-01-03T04:27:19.563Z,0.00
2018-01-03T04:28:19.593Z,0.00
2018-01-03T04:29:19.625Z,0.00
2018-01-03T04:30:19.656Z,0.00
2018-01-03T04:31:19.689Z,0.00
2018-01-03T04:32:19.722Z,0.00
2018-01-03T04:33:19.756Z,0.00
2018-01-03T04:34:19.848Z,0.00
2018-01-03T04:35:19.815Z,0.00
2018-01-03T04:36:19.847Z,0.00
2018-01-03T04:37:19.879Z,0.00
2018-01-03T04:38:19.909Z,0.00
2018-01-03T04:39:20.145Z,0.00
2018-01-03T04:40:19.976Z,0.00
2018-01-03T04:41:20.075Z,0.00
2018-01-03T04:42:20.046Z,0.00
2018-01-03T04:43:20.074Z,0.00
2018-01-03T04:44:20.101Z,0.00
2018-01-03T04:45:20.137Z,0.00
2018-01-03T04:46:20.167Z,0.00
2018-01-03T04:47:20.210Z,0.00
2018-01-03T04:48:20.268Z,0.00
2018-01-03T04:49:20.269Z,0.00
2018-01-03T04:50:20.294Z,0.00
2018-01-03T04:51:20.329Z,0.00
2018-01-03T04:52:20.356Z,0.00
2018-01-03T04:53:20.390Z,0.00
2018-01-03T04:54:20.418Z,0.00
2018-01-03T04:55:20.451Z,0.00
2018-01-03T04:56:20.485Z,0.00
2018-01-03T04:57:20.518Z,0.00
2018-01-03T04:58:20.547Z,0.00
2018-01-03T04:59:20.580Z,0.00
2018-01-03T05:00:20.613Z,0.00
2018-01-03T05:01:20.647Z,0.00
2018-01-03T05:02:20.679Z,0.00
2018-01-03T05:03:20.707Z,0.00
2018-01-03T05:04:20.740Z,0.00
2018-01-03T05:05:20.770Z,0.00
2018-01-03T05:06:20.803Z,0.00
2018-01-03T05:07:21.150Z,0.00
2018-01-03T05:08:20.868Z,0.00
2018-01-03T05:09:20.908Z,0.00
2018-01-03T05:10:20.930Z,0.00
2018-01-03T05:11:20.963Z,0.00
2018-01-03T05:12:20.998Z,0.00
2018-01-03T05:13:21.028Z,0.00
2018-01-03T05:14:21.059Z,0.00
2018-01-03T05:15:21.096Z,0.00
2018-01-03T05:16:21.125Z,0.00
2018-01-03T05:17:21.155Z,0.00
2018-01-03T05:18:21.190Z,0.00
2018-01-03T05:19:21.220Z,0.00
2018-01-03T05:20:21.258Z,0.00
2018-01-03T05:21:21.294Z,0.00
2018-01-03T05:22:21.317Z,0.00
2018-01-03T05:23:21.349Z,0.00
2018-01-03T05:24:21.399Z,0.00
2018-01-03T05:25:21.411Z,0.00
2018-01-03T05:26:21.442Z,0.00
2018-01-03T05:27:21.477Z,0.00
2018-01-03T05:28:21.510Z,0.00
2018-01-03T05:29:21.558Z,0.00
2018-01-03T05:30:21.634Z,0.00
2018-01-03T05:31:21.701Z,0.00
2018-01-03T05:32:21.637Z,0.00
2018-01-03T05:33:21.672Z,0.00
2018-01-03T05:34:21.704Z,0.00
2018-01-03T05:35:21.752Z,0.00
2018-01-03T05:36:21.768Z,0.00
2018-01-03T05:37:21.801Z,0.00
2018-01-03T05:38:21.830Z,0.00
2018-01-03T05:39:21.860Z,0.00
2018-01-03T05:40:21.894Z,0.00
2018-01-03T05:41:21.925Z,0.00
2018-01-03T05:42:21.955Z,0.00
2018-01-03T05:43:21.990Z,0.00
2018-01-03T05:44:22.024Z,0.00
2018-01-03T05:45:22.056Z,0.00
2018-01-03T05:46:22.087Z,0.00
2018-01-03T05:47:22.123Z,0.00
2018-01-03T05:48:22.153Z,0.00
2018-01-03T05:49:22.185Z,0.00
2018-01-03T05:50:22.218Z,0.00
2018-01-03T05:51:22.264Z,0.00
2018-01-03T05:52:22.294Z,0.00
2018-01-03T05:53:22.323Z,0.00
2018-01-03T05:54:22.349Z,0.00
2018-01-03T05:55:22.378Z,0.00
2018-01-03T05:56:22.425Z,0.00
2018-01-03T05:57:22.446Z,0.00
2018-01-03T05:58:22.491Z,0.00
2018-01-03T05:59:22.514Z,0.00
2018-01-03T06:00:22.545Z,0.00
2018-01-03T06:01:22.584Z,0.00
2018-01-03T06:02:22.606Z,0.00
2018-01-03T06:03:22.644Z,0.00
2018-01-03T06:04:22.676Z,0.00
2018-01-03T06:05:22.705Z,0.00
2018-01-03T06:06:22.736Z,0.00
2018-01-03T06:07:22.788Z,0.00
2018-01-03T06:08:22.804Z,0.00
2018-01-03T06:09:22.835Z,0.00
2018-01-03T06:10:22.868Z,0.00
2018-01-03T06:11:22.910Z,0.00
2018-01-03T06:12:22.934Z,0.00
2018-01-03T06:13:22.976Z,0.00
2018-01-03T06:14:23.030Z,0.00
2018-01-03T06:15:23.036Z,0.00
2018-01-03T06:16:23.064Z,0.00
2018-01-03T06:17:23.095Z,0.00
2018-01-03T06:18:23.127Z,0.00
2018-01-03T06:19:23.161Z,0.00
2018-01-03T06:20:23.195Z,0.00
2018-01-03T06:21:23.298Z,0.00
2018-01-03T06:22:23.259Z,0.00
2018-01-03T06:23:23.291Z,0.00
2018-01-03T06:24:23.324Z,0.00
2018-01-03T06:25:23.357Z,0.00
2018-01-03T06:26:23.390Z,0.00
2018-01-03T06:27:23.436Z,0.00
2018-01-03T06:28:23.456Z,0.00
2018-01-03T06:29:23.489Z,0.00
2018-01-03T06:30:23.522Z,0.00
2018-01-03T06:31:23.558Z,0.00
2018-01-03T06:32:23.588Z,0.00
2018-01-03T06:33:23.680Z,0.00
2018-01-03T06:34:23.653Z,0.00
2018-01-03T06:35:23.687Z,0.00
2018-01-03T06:36:23.718Z,0.00
2018-01-03T06:37:23.766Z,0.00
2018-01-03T06:38:23.786Z,0.00
2018-01-03T06:39:23.817Z,0.00
2018-01-03T06:40:23.850Z,0.00
2018-01-03T06:41:23.883Z,0.00
2018-01-03T06:42:23.925Z,0.00
2018-01-03T06:43:23.951Z,0.00
2018-01-03T06:44:23.997Z,0.00
2018-01-03T06:45:24.070Z,0.00
2018-01-03T06:46:24.049Z,0.00
2018-01-03T06:47:24.082Z,0.00
2018-01-03T06:48:24.114Z,0.00
2018-01-03T06:49:24.150Z,0.00
2018-01-03T06:50:24.178Z,0.00
2018-01-03T06:51:24.213Z,4.00
2018-01-03T06:52:24.244Z,4.00
2018-01-03T06:53:24.284Z,0.00
2018-01-03T06:54:24.311Z,4.00
2018-01-03T06:55:24.345Z,4.00
2018-01-03T06:56:24.385Z,4.00
2018-01-03T06:57:24.412Z,4.00
2018-01-03T06:58:24.446Z,4.00
2018-01-03T06:59:24.477Z,4.00
2018-01-03T07:00:24.531Z,4.00
2018-01-03T07:01:24.544Z,4.00
2018-01-03T07:02:24.576Z,4.00
2018-01-03T07:03:24.611Z,4.00
2018-01-03T07:04:24.705Z,0.00
2018-01-03T07:05:24.676Z,4.00
2018-01-03T07:06:24.711Z,8.00
2018-01-03T07:07:24.744Z,4.00
2018-01-03T07:08:24.775Z,8.00
2018-01-03T07:09:24.811Z,8.00
2018-01-03T07:10:24.856Z,8.00
2018-01-03T07:11:24.952Z,8.00
2018-01-03T07:12:24.919Z,8.00
2018-01-03T07:13:24.944Z,8.00
2018-01-03T07:14:24.979Z,12.00
2018-01-03T07:15:25.013Z,12.00
2018-01-03T07:16:25.042Z,12.00
2018-01-03T07:17:25.077Z,12.00
2018-01-03T07:18:25.121Z,12.00
2018-01-03T07:19:25.142Z,16.00
2018-01-03T07:20:25.175Z,24.00
2018-01-03T07:21:25.207Z,36.00
2018-01-03T07:22:25.245Z,60.00
2018-01-03T07:23:25.275Z,96.00
2018-01-03T07:24:25.376Z,132.00
2018-01-03T07:25:25.342Z,160.00
2018-01-03T07:26:25.374Z,180.00
2018-01-03T07:27:25.409Z,204.00
2018-01-03T07:28:25.511Z,228.00
2018-01-03T07:29:25.476Z,236.00
2018-01-03T07:30:25.517Z,248.00
2018-01-03T07:31:25.546Z,256.00
2018-01-03T07:32:25.576Z,252.00
2018-01-03T07:33:25.612Z,252.00
2018-01-03T07:34:25.652Z,248.00
2018-01-03T07:35:25.785Z,268.00
2018-01-03T07:36:25.709Z,284.00
2018-01-03T07:37:25.745Z,296.00
2018-01-03T07:38:25.773Z,304.00
2018-01-03T07:39:25.806Z,324.00
2018-01-03T07:40:25.859Z,348.00
2018-01-03T07:41:25.874Z,380.00
2018-01-03T07:42:25.925Z,404.00
2018-01-03T07:43:25.947Z,424.00
2018-01-03T07:44:25.973Z,432.00
2018-01-03T07:45:26.010Z,440.00
2018-01-03T07:46:26.041Z,456.00
2018-01-03T07:47:26.127Z,464.00
2018-01-03T07:48:26.109Z,448.00
2018-01-03T07:49:26.140Z,436.00
2018-01-03T07:50:26.230Z,420.00
2018-01-03T07:51:26.208Z,428.00
2018-01-03T07:52:26.246Z,488.00
2018-01-03T07:53:26.282Z,536.00
2018-01-03T07:54:26.403Z,564.00
2018-01-03T07:55:26.341Z,672.00
2018-01-03T07:56:26.375Z,748.00
2018-01-03T07:57:26.410Z,808.00
2018-01-03T07:58:26.442Z,864.00
2018-01-03T07:59:26.477Z,888.00
2018-01-03T08:00:26.512Z,896.00
2018-01-03T08:01:26.542Z,896.00
2018-01-03T08:02:26.576Z,868.00
2018-01-03T08:03:26.606Z,900.00
2018-01-03T08:04:26.641Z,988.00
2018-01-03T08:05:26.686Z,1044.00
2018-01-03T08:06:26.707Z,1076.00
2018-01-03T08:07:26.740Z,1212.00
2018-01-03T08:08:26.776Z,1256.00
2018-01-03T08:09:26.807Z,1240.00
2018-01-03T08:10:26.846Z,1324.00
2018-01-03T08:11:26.934Z,1448.00
2018-01-03T08:12:26.907Z,1580.00
2018-01-03T08:13:26.939Z,1680.00
2018-01-03T08:14:26.979Z,1780.00
2018-01-03T08:15:27.007Z,1976.00
2018-01-03T08:16:27.041Z,2128.00
2018-01-03T08:17:27.073Z,2100.00
2018-01-03T08:18:27.108Z,1928.00
2018-01-03T08:19:27.141Z,1672.00
2018-01-03T08:20:27.173Z,1368.00
2018-01-03T08:21:27.226Z,1048.00
2018-01-03T08:22:27.244Z,808.00
2018-01-03T08:23:27.334Z,576.00
2018-01-03T08:24:27.309Z,432.00
2018-01-03T08:25:27.413Z,300.00
2018-01-03T08:26:27.372Z,236.00
2018-01-03T08:27:27.411Z,220.00
2018-01-03T08:28:27.439Z,224.00
2018-01-03T08:29:27.476Z,264.00
2018-01-03T08:30:27.506Z,380.00
2018-01-03T08:31:27.552Z,564.00
2018-01-03T08:32:27.610Z,820.00
2018-01-03T08:33:27.606Z,852.00
2018-01-03T08:34:27.639Z,980.00
2018-01-03T08:35:27.672Z,1484.00
2018-01-03T08:36:27.705Z,2000.00
2018-01-03T08:37:27.743Z,2020.00
2018-01-03T08:38:27.771Z,2076.00
2018-01-03T08:39:27.806Z,2344.00
2018-01-03T08:40:27.841Z,2300.00
2018-01-03T08:41:27.885Z,2564.00
2018-01-03T08:42:27.906Z,2724.00
2018-01-03T08:43:27.944Z,2560.00
2018-01-03T08:44:28.028Z,2768.00
2018-01-03T08:45:28.061Z,2492.00
2018-01-03T08:46:28.041Z,2400.00
2018-01-03T08:47:28.128Z,1932.00
2018-01-03T08:48:28.104Z,1752.00
2018-01-03T08:49:28.141Z,1816.00
2018-01-03T08:50:28.172Z,1620.00
2018-01-03T08:51:28.273Z,1428.00
2018-01-03T08:52:28.242Z,1064.00
2018-01-03T08:53:28.272Z,1120.00
2018-01-03T08:54:28.305Z,1636.00
2018-01-03T08:55:28.343Z,2092.00
2018-01-03T08:56:28.372Z,2856.00
2018-01-03T08:57:28.408Z,3276.00
2018-01-03T08:58:28.440Z,3504.00
2018-01-03T08:59:28.472Z,3580.00
2018-01-03T09:00:28.507Z,3588.00
2018-01-03T09:01:28.598Z,3584.00
2018-01-03T09:02:28.574Z,3476.00
2018-01-03T09:03:28.613Z,3332.00
2018-01-03T09:04:28.641Z,3188.00
2018-01-03T09:05:28.705Z,3008.00
2018-01-03T09:06:28.710Z,2708.00
2018-01-03T09:07:28.743Z,2684.00
2018-01-03T09:08:28.777Z,2688.00
2018-01-03T09:09:28.814Z,2744.00
2018-01-03T09:10:28.845Z,2764.00
2018-01-03T09:11:28.878Z,3100.00
2018-01-03T09:12:28.910Z,3300.00
2018-01-03T09:13:28.944Z,3484.00
2018-01-03T09:14:28.980Z,3740.00
2018-01-03T09:15:29.080Z,4204.00
2018-01-03T09:16:29.046Z,3848.00
2018-01-03T09:17:29.085Z,3148.00
2018-01-03T09:18:29.113Z,3140.00
2018-01-03T09:19:29.148Z,3340.00
2018-01-03T09:20:29.180Z,3388.00
2018-01-03T09:21:29.216Z,4028.00
2018-01-03T09:22:29.252Z,4204.00
2018-01-03T09:23:29.293Z,3856.00
2018-01-03T09:24:29.321Z,3564.00
2018-01-03T09:25:29.351Z,3688.00
2018-01-03T09:26:29.386Z,3500.00
2018-01-03T09:27:29.421Z,3384.00
2018-01-03T09:28:29.476Z,2872.00
2018-01-03T09:29:29.487Z,2452.00
2018-01-03T09:30:29.522Z,2280.00
2018-01-03T09:31:29.555Z,2040.00
2018-01-03T09:32:29.587Z,1492.00
2018-01-03T09:33:29.621Z,1120.00
2018-01-03T09:34:29.711Z,872.00
2018-01-03T09:35:29.689Z,920.00
2018-01-03T09:36:29.744Z,1036.00
2018-01-03T09:37:29.757Z,856.00
2018-01-03T09:38:29.793Z,1064.00
2018-01-03T09:39:29.890Z,1304.00
2018-01-03T09:40:29.859Z,1676.00
2018-01-03T09:41:29.972Z,1756.00
2018-01-03T09:42:29.925Z,1820.00
2018-01-03T09:43:29.959Z,2192.00
2018-01-03T09:44:29.991Z,2556.00
2018-01-03T09:45:30.025Z,2724.00
2018-01-03T09:46:30.058Z,2344.00
2018-01-03T09:47:30.090Z,2496.00
2018-01-03T09:48:30.191Z,2436.00
2018-01-03T09:49:30.153Z,2080.00
2018-01-03T09:50:30.192Z,1952.00
2018-01-03T09:51:30.216Z,2196.00
2018-01-03T09:52:30.251Z,2920.00
2018-01-03T09:54:30.322Z,4060.00
2018-01-03T09:55:30.349Z,4924.00
2018-01-03T09:56:30.381Z,5176.00
2018-01-03T09:57:30.412Z,5392.00
2018-01-03T09:58:30.442Z,5480.00
2018-01-03T09:59:30.480Z,5872.00
2018-01-03T10:00:30.524Z,6560.00
2018-01-03T10:01:30.562Z,7476.00
2018-01-03T10:02:30.571Z,7004.00
2018-01-03T10:03:30.603Z,6388.00
2018-01-03T10:04:30.643Z,6012.00
2018-01-03T10:05:30.740Z,5632.00
2018-01-03T10:06:30.701Z,5764.00
2018-01-03T10:07:30.732Z,6012.00
2018-01-03T10:08:30.783Z,6140.00
2018-01-03T10:09:30.821Z,6132.00
2018-01-03T10:10:30.834Z,6096.00
2018-01-03T10:11:30.860Z,6100.00
2018-01-03T10:12:30.892Z,5888.00
2018-01-03T10:13:30.925Z,5284.00
2018-01-03T10:14:30.957Z,4632.00
2018-01-03T10:15:30.986Z,4364.00
2018-01-03T10:16:31.088Z,4056.00
2018-01-03T10:17:31.053Z,4016.00
2018-01-03T10:18:31.083Z,4164.00
2018-01-03T10:19:31.122Z,3808.00
2018-01-03T10:20:31.170Z,3284.00
2018-01-03T10:21:31.184Z,2436.00
2018-01-03T10:22:31.213Z,2180.00
2018-01-03T10:23:31.245Z,1848.00
2018-01-03T10:24:31.343Z,1716.00
2018-01-03T10:25:31.321Z,1876.00
2018-01-03T10:26:31.344Z,2052.00
2018-01-03T10:27:31.372Z,2356.00
2018-01-03T10:28:31.406Z,2828.00
2018-01-03T10:29:31.435Z,3416.00
2018-01-03T10:30:31.466Z,3960.00
2018-01-03T10:31:31.521Z,4304.00
2018-01-03T10:32:31.536Z,4508.00
2018-01-03T10:33:31.563Z,4688.00
2018-01-03T10:34:31.596Z,4896.00
2018-01-03T10:35:31.628Z,5208.00
2018-01-03T10:36:31.865Z,5420.00
2018-01-03T10:37:31.694Z,5344.00
2018-01-03T10:38:31.727Z,5124.00
2018-01-03T10:40:31.790Z,3492.00
2018-01-03T10:41:31.819Z,3728.00
2018-01-03T10:42:31.849Z,3552.00
2018-01-03T10:43:31.884Z,2964.00
2018-01-03T10:44:31.918Z,2532.00
2018-01-03T10:45:31.947Z,2320.00
2018-01-03T10:46:31.978Z,2364.00
2018-01-03T10:47:32.011Z,2556.00
2018-01-03T10:48:32.052Z,2768.00
2018-01-03T10:49:32.076Z,2880.00
2018-01-03T10:50:32.114Z,2856.00
2018-01-03T10:51:32.345Z,2712.00
2018-01-03T10:52:32.177Z,2468.00
2018-01-03T10:53:32.206Z,2160.00
2018-01-03T10:54:32.234Z,1888.00
2018-01-03T10:55:32.332Z,1656.00
2018-01-03T10:56:32.304Z,1516.00
2018-01-03T10:57:32.337Z,1380.00
2018-01-03T10:59:32.396Z,1652.00
2018-01-03T11:00:32.432Z,1944.00
2018-01-03T11:01:32.461Z,2280.00
2018-01-03T11:02:32.820Z,2668.00
2018-01-03T11:03:32.527Z,3052.00
2018-01-03T11:05:32.587Z,3472.00
2018-01-03T11:06:32.621Z,3476.00
2018-01-03T11:07:32.682Z,3492.00
2018-01-03T11:08:32.688Z,3520.00
2018-01-03T11:09:32.717Z,3588.00
2018-01-03T11:10:32.749Z,3728.00
2018-01-03T11:11:32.779Z,3940.00
2018-01-03T11:12:32.837Z,4336.00
2018-01-03T11:13:32.843Z,4848.00
2018-01-03T11:14:32.878Z,5276.00
2018-01-03T11:15:32.909Z,5540.00
2018-01-03T11:16:32.998Z,5604.00
2018-01-03T11:17:32.976Z,5436.00
2018-01-03T11:18:33.013Z,5060.00
2018-01-03T11:19:33.098Z,4632.00
2018-01-03T11:20:33.070Z,4440.00
2018-01-03T11:21:33.163Z,4268.00
2018-01-03T11:22:33.139Z,4152.00
2018-01-03T11:23:33.222Z,4024.00
2018-01-03T11:24:33.214Z,4056.00
2018-01-03T11:25:33.242Z,4168.00
2018-01-03T11:26:33.262Z,4432.00
2018-01-03T11:27:33.297Z,4348.00
2018-01-03T11:28:33.329Z,4720.00
2018-01-03T11:29:33.359Z,4732.00
2018-01-03T11:30:33.389Z,5032.00
2018-01-03T11:31:33.423Z,6660.00
2018-01-03T11:32:33.455Z,6744.00
2018-01-03T11:33:33.490Z,6836.00
2018-01-03T11:34:33.536Z,6516.00
2018-01-03T11:35:33.550Z,8020.00
2018-01-03T11:36:33.603Z,7672.00
2018-01-03T11:37:33.637Z,7108.00
2018-01-03T11:38:33.673Z,6456.00
2018-01-03T11:39:33.681Z,7080.00
2018-01-03T11:40:33.715Z,7712.00
2018-01-03T11:41:33.781Z,7128.00
2018-01-03T11:42:33.779Z,7424.00
2018-01-03T11:43:33.812Z,6828.00
2018-01-03T11:44:33.843Z,6504.00
2018-01-03T11:45:33.986Z,5800.00
2018-01-03T11:46:33.928Z,7848.00
2018-01-03T11:47:33.941Z,7168.00
2018-01-03T11:48:33.974Z,7600.00
2018-01-03T11:49:34.007Z,9040.00
2018-01-03T11:50:34.041Z,8732.00
2018-01-03T11:51:34.073Z,9672.00
2018-01-03T11:52:34.105Z,10804.00
2018-01-03T11:53:34.148Z,9156.00
2018-01-03T11:54:34.171Z,6968.00
2018-01-03T11:55:34.202Z,5764.00
2018-01-03T11:56:34.237Z,5788.00
2018-01-03T11:57:34.274Z,4312.00
2018-01-03T11:58:34.305Z,5340.00
2018-01-03T11:59:34.335Z,5312.00
2018-01-03T12:00:34.384Z,6084.00
2018-01-03T12:01:34.423Z,6116.00
2018-01-03T12:02:34.436Z,5944.00
2018-01-03T12:03:34.465Z,5964.00
2018-01-03T12:04:34.503Z,7368.00
2018-01-03T12:05:34.533Z,7620.00
2018-01-03T12:06:34.592Z,7252.00
2018-01-03T12:07:34.600Z,6848.00
2018-01-03T12:08:34.637Z,6568.00
2018-01-03T12:09:34.664Z,6684.00
2018-01-03T12:10:34.753Z,6900.00
2018-01-03T12:11:34.735Z,6880.00
2018-01-03T12:12:34.771Z,6844.00
2018-01-03T12:13:34.798Z,7108.00
2018-01-03T12:14:34.832Z,6932.00
2018-01-03T12:15:34.887Z,7216.00
2018-01-03T12:16:34.895Z,7200.00
2018-01-03T12:17:34.926Z,6972.00
2018-01-03T12:18:34.957Z,6884.00
2018-01-03T12:19:34.995Z,7680.00
2018-01-03T12:20:35.031Z,7700.00
2018-01-03T12:21:35.058Z,7308.00
2018-01-03T12:22:35.094Z,6188.00
2018-01-03T12:23:35.126Z,5296.00
2018-01-03T12:24:35.159Z,5068.00
2018-01-03T12:25:35.190Z,5408.00
2018-01-03T12:26:35.229Z,5448.00
2018-01-03T12:27:35.256Z,5396.00
2018-01-03T12:28:35.352Z,5364.00
2018-01-03T12:29:35.327Z,5184.00
2018-01-03T12:30:35.356Z,5196.00
2018-01-03T12:31:35.387Z,4856.00
2018-01-03T12:32:35.421Z,4588.00
2018-01-03T12:33:35.463Z,5012.00
2018-01-03T12:34:35.487Z,4636.00
2018-01-03T12:35:35.565Z,3944.00
2018-01-03T12:36:35.551Z,3968.00
2018-01-03T12:37:35.587Z,3932.00
2018-01-03T12:38:35.617Z,3952.00
2018-01-03T12:39:35.649Z,4380.00
2018-01-03T12:40:35.683Z,5060.00
2018-01-03T12:41:35.716Z,5416.00
2018-01-03T12:42:35.752Z,6380.00
2018-01-03T12:43:35.782Z,7084.00
2018-01-03T12:44:35.817Z,7308.00
2018-01-03T12:45:35.851Z,7116.00
2018-01-03T12:46:35.890Z,6452.00
2018-01-03T12:47:35.926Z,5480.00
2018-01-03T12:48:35.947Z,5156.00
2018-01-03T12:49:35.978Z,5096.00
2018-01-03T12:50:36.010Z,5428.00
2018-01-03T12:51:36.044Z,5560.00